createdAt,value
2019-03-18T00:02:02.082Z,98400.57
2019-03-18T00:04:33.498Z,98405.72
2019-03-18T00:07:04.976Z,98403.17
2019-03-18T00:09:39.158Z,98411.33
2019-03-18T00:12:13.111Z,98404.50
2019-03-18T00:14:45.152Z,98406.17
2019-03-18T00:17:18.176Z,98403.06
2019-03-18T00:19:50.059Z,98394.39
2019-03-18T00:22:24.014Z,98399.19
2019-03-18T00:24:55.837Z,98399.19
2019-03-18T00:27:29.333Z,98398.05
2019-03-18T00:30:02.231Z,98399.95
2019-03-18T00:32:35.330Z,98397.92
2019-03-18T00:35:08.565Z,98399.84
2019-03-18T00:37:41.146Z,98393.48
2019-03-18T00:40:14.128Z,98402.30
2019-03-18T00:42:47.103Z,98407.39
2019-03-18T00:45:20.407Z,98414.08
2019-03-18T00:47:54.443Z,98411.43
2019-03-18T00:50:26.458Z,98404.55
2019-03-18T00:52:59.206Z,98409.64
2019-03-18T00:55:32.546Z,98409.34
2019-03-18T00:58:05.292Z,98419.91
2019-03-18T01:00:39.488Z,98408.27
2019-03-18T01:03:13.183Z,98407.16
2019-03-18T01:05:45.448Z,98393.87
2019-03-18T01:08:19.365Z,98392.39
2019-03-18T01:10:51.618Z,98397.54
2019-03-18T01:13:23.394Z,98380.41
2019-03-18T01:15:56.068Z,98381.48
2019-03-18T01:18:29.584Z,98374.59
2019-03-18T01:21:02.465Z,98372.95
2019-03-18T01:23:36.532Z,98376.58
2019-03-18T01:26:08.483Z,98375.77
2019-03-18T01:28:44.000Z,98375.77
2019-03-18T01:31:16.022Z,98380.56
2019-03-18T01:33:47.616Z,98379.23
2019-03-18T01:36:19.775Z,98374.34
2019-03-18T01:38:51.053Z,98376.38
2019-03-18T01:41:24.671Z,98378.27
2019-03-18T01:43:56.107Z,98373.58
2019-03-18T01:46:29.724Z,98379.23
2019-03-18T01:49:03.423Z,98385.00
2019-03-18T01:51:36.607Z,98397.65
2019-03-18T01:54:11.564Z,98397.24
2019-03-18T01:56:45.621Z,98405.02
2019-03-18T01:59:17.778Z,98402.44
2019-03-18T02:01:51.847Z,98403.88
2019-03-18T02:04:25.388Z,98406.69
2019-03-18T02:06:56.755Z,98401.44
2019-03-18T02:09:29.690Z,98403.36
2019-03-18T02:12:04.386Z,98400.30
2019-03-18T02:14:35.839Z,98398.21
2019-03-18T02:17:10.434Z,98404.09
2019-03-18T02:19:42.751Z,98397.13
2019-03-18T02:22:16.865Z,98392.28
2019-03-18T02:24:50.704Z,98395.69
2019-03-18T02:27:22.895Z,98399.65
2019-03-18T02:29:56.030Z,98398.56
2019-03-18T02:32:30.058Z,98397.81
2019-03-18T02:35:03.096Z,98388.83
2019-03-18T02:37:38.541Z,98391.42
2019-03-18T02:40:10.852Z,98401.12
2019-03-18T02:42:44.957Z,98407.04
2019-03-18T02:45:18.774Z,98408.27
2019-03-18T02:47:51.000Z,98399.33
2019-03-18T02:50:23.717Z,98399.84
2019-03-18T02:52:56.154Z,98410.66
2019-03-18T02:55:27.775Z,98405.25
2019-03-18T02:57:59.836Z,98413.22
2019-03-18T03:00:33.009Z,98415.70
2019-03-18T03:03:06.833Z,98412.75
2019-03-18T03:05:39.944Z,98412.13
2019-03-18T03:08:12.961Z,98412.41
2019-03-18T03:10:44.270Z,98416.44
2019-03-18T03:13:15.971Z,98414.03
2019-03-18T03:15:49.060Z,98419.39
2019-03-18T03:18:20.955Z,98422.97
2019-03-18T03:20:55.030Z,98416.28
2019-03-18T03:23:26.954Z,98414.95
2019-03-18T03:26:00.242Z,98418.16
2019-03-18T03:28:33.145Z,98419.73
2019-03-18T03:31:06.291Z,98420.09
2019-03-18T03:33:39.751Z,98417.59
2019-03-18T03:36:12.086Z,98416.95
2019-03-18T03:38:44.165Z,98419.85
2019-03-18T03:41:18.291Z,98413.38
2019-03-18T03:43:53.249Z,98419.49
2019-03-18T03:46:41.896Z,98423.66
2019-03-18T03:49:02.215Z,98435.92
2019-03-18T03:51:35.280Z,98445.87
2019-03-18T03:54:08.229Z,98449.13
2019-03-18T03:56:41.070Z,98463.33
2019-03-18T03:59:14.743Z,98464.81
2019-03-18T04:01:48.223Z,98451.38
2019-03-18T04:04:20.253Z,98463.43
2019-03-18T04:06:53.228Z,98467.98
2019-03-18T04:09:27.360Z,98465.03
2019-03-18T04:11:59.326Z,98461.77
2019-03-18T04:14:31.303Z,98450.14
2019-03-18T04:17:05.268Z,98442.64
2019-03-18T04:19:40.696Z,98439.72
2019-03-18T04:22:14.486Z,98450.48
2019-03-18T04:24:47.340Z,98452.98
2019-03-18T04:27:20.449Z,98446.34
2019-03-18T04:29:52.370Z,98459.75
2019-03-18T04:32:26.510Z,98462.95
2019-03-18T04:34:59.254Z,98462.37
2019-03-18T04:37:32.421Z,98484.98
2019-03-18T04:40:05.802Z,98493.88
2019-03-18T04:42:38.368Z,98499.93
2019-03-18T04:45:11.736Z,98492.55
2019-03-18T04:47:43.309Z,98487.44
2019-03-18T04:50:16.977Z,98474.97
2019-03-18T04:52:50.498Z,98481.30
2019-03-18T04:55:23.372Z,98480.58
2019-03-18T04:57:56.452Z,98462.73
2019-03-18T05:00:29.486Z,98465.15
2019-03-18T05:03:02.478Z,98469.19
2019-03-18T05:05:34.395Z,98479.41
2019-03-18T05:08:06.476Z,98500.20
2019-03-18T05:10:38.881Z,98523.37
2019-03-18T05:13:11.655Z,98531.27
2019-03-18T05:15:43.148Z,98528.29
2019-03-18T05:18:17.573Z,98527.86
2019-03-18T05:20:51.694Z,98530.90
2019-03-18T05:23:24.488Z,98527.80
2019-03-18T05:25:56.334Z,98541.81
2019-03-18T05:28:30.394Z,98531.86
2019-03-18T05:31:03.650Z,98531.75
2019-03-18T05:33:35.023Z,98529.49
2019-03-18T05:36:08.608Z,98538.41
2019-03-18T05:38:42.209Z,98540.81
2019-03-18T05:41:14.739Z,98549.09
2019-03-18T05:43:46.036Z,98565.52
2019-03-18T05:46:17.828Z,98576.98
2019-03-18T05:48:49.923Z,98584.06
2019-03-18T05:51:22.146Z,98589.81
2019-03-18T05:53:53.761Z,98586.28
2019-03-18T05:56:28.436Z,98574.20
2019-03-18T05:58:59.840Z,98584.88
2019-03-18T06:01:32.609Z,98592.83
2019-03-18T06:04:04.692Z,98592.02
2019-03-18T06:06:38.601Z,98579.59
2019-03-18T06:09:11.776Z,98587.33
2019-03-18T06:11:45.967Z,98587.91
2019-03-18T06:14:17.775Z,98574.66
2019-03-18T06:16:50.019Z,98582.91
2019-03-18T06:19:23.958Z,98596.89
2019-03-18T06:21:56.590Z,98603.24
2019-03-18T06:24:32.434Z,98605.66
2019-03-18T06:27:06.037Z,98605.66
2019-03-18T06:29:37.330Z,98607.80
2019-03-18T06:32:08.893Z,98604.39
2019-03-18T06:34:42.179Z,98592.59
2019-03-18T06:37:15.370Z,98578.17
2019-03-18T06:39:48.007Z,98571.38
2019-03-18T06:42:21.510Z,98579.72
2019-03-18T06:44:54.865Z,98584.14
2019-03-18T06:47:27.426Z,98575.36
2019-03-18T06:49:59.771Z,98583.48
2019-03-18T06:52:33.304Z,98588.41
2019-03-18T06:55:06.433Z,98601.43
2019-03-18T06:57:38.076Z,98604.75
2019-03-18T07:00:10.323Z,98604.39
2019-03-18T07:02:42.392Z,98610.07
2019-03-18T07:05:15.194Z,98625.68
2019-03-18T07:07:48.231Z,98629.34
2019-03-18T07:10:21.095Z,98633.62
2019-03-18T07:12:54.035Z,98642.47
2019-03-18T07:15:28.187Z,98635.15
2019-03-18T07:18:00.240Z,98637.59
2019-03-18T07:20:32.258Z,98622.94
2019-03-18T07:23:06.255Z,98627.68
2019-03-18T07:25:39.012Z,98614.66
2019-03-18T07:28:11.081Z,98631.03
2019-03-18T07:30:43.275Z,98646.06
2019-03-18T07:33:15.202Z,98651.67
2019-03-18T07:35:46.911Z,98643.53
2019-03-18T07:38:23.070Z,98643.98
2019-03-18T07:40:57.980Z,98647.66
2019-03-18T07:43:30.105Z,98665.95
2019-03-18T07:46:03.060Z,98665.07
2019-03-18T07:48:36.412Z,98662.93
2019-03-18T07:51:10.354Z,98673.61
2019-03-18T07:53:44.047Z,98669.83
2019-03-18T07:56:18.288Z,98677.85
2019-03-18T07:58:50.295Z,98675.48
2019-03-18T08:01:23.268Z,98679.02
2019-03-18T08:03:55.275Z,98685.35
2019-03-18T08:06:27.295Z,98689.27
2019-03-18T08:09:00.902Z,98688.75
2019-03-18T08:11:33.373Z,98684.28
2019-03-18T08:14:06.406Z,98677.27
2019-03-18T08:16:40.559Z,98665.52
2019-03-18T08:19:13.024Z,98681.44
2019-03-18T08:21:46.439Z,98693.45
2019-03-18T08:24:20.073Z,98687.19
2019-03-18T08:26:52.746Z,98672.27
2019-03-18T08:29:24.486Z,98671.01
2019-03-18T08:31:56.663Z,98668.78
2019-03-18T08:34:30.590Z,98688.09
2019-03-18T08:37:04.693Z,98691.41
2019-03-18T08:39:36.492Z,98679.68
2019-03-18T08:42:09.593Z,98687.60
2019-03-18T08:44:43.633Z,98684.50
2019-03-18T08:47:15.653Z,98683.66
2019-03-18T08:49:48.622Z,98709.72
2019-03-18T08:52:21.935Z,98719.33
2019-03-18T08:54:55.637Z,98714.71
2019-03-18T08:57:28.916Z,98700.68
2019-03-18T09:00:03.035Z,98700.59
2019-03-18T09:02:36.743Z,98705.45
2019-03-18T09:05:09.052Z,98702.26
2019-03-18T09:07:42.848Z,98707.42
2019-03-18T09:10:15.651Z,98699.52
2019-03-18T09:12:47.784Z,98699.52
2019-03-18T09:15:20.662Z,98682.37
2019-03-18T09:17:52.968Z,98676.78
2019-03-18T09:20:27.162Z,98679.14
2019-03-18T09:23:01.628Z,98689.31
2019-03-18T09:25:36.031Z,98693.89
2019-03-18T09:28:08.977Z,98683.32
2019-03-18T09:30:41.829Z,98683.44
2019-03-18T09:33:15.113Z,98701.16
2019-03-18T09:35:48.062Z,98719.39
2019-03-18T09:38:21.953Z,98726.33
2019-03-18T09:40:54.699Z,98719.09
2019-03-18T09:43:27.882Z,98700.73
2019-03-18T09:46:01.869Z,98720.56
2019-03-18T09:48:33.829Z,98726.86
2019-03-18T09:51:09.521Z,98727.89
2019-03-18T09:53:42.517Z,98726.86
2019-03-18T09:56:24.315Z,98721.52
2019-03-18T09:58:56.181Z,98707.14
2019-03-18T10:01:27.883Z,98709.59
2019-03-18T10:04:00.017Z,98701.66
2019-03-18T10:06:32.902Z,98721.93
2019-03-18T10:09:07.348Z,98721.52
2019-03-18T10:11:38.884Z,98721.06
2019-03-18T10:14:12.762Z,98724.94
2019-03-18T10:16:44.990Z,98722.17
2019-03-18T10:19:18.013Z,98717.58
2019-03-18T10:21:51.104Z,98727.47
2019-03-18T10:24:23.848Z,98729.45
2019-03-18T10:26:58.364Z,98724.50
2019-03-18T10:29:35.598Z,98731.23
2019-03-18T10:32:08.883Z,98745.59
2019-03-18T10:34:44.743Z,98745.38
2019-03-18T10:37:18.098Z,98751.19
2019-03-18T10:40:10.287Z,98749.13
2019-03-18T10:42:43.156Z,98742.78
2019-03-18T10:45:15.637Z,98748.08
2019-03-18T10:47:49.208Z,98752.36
2019-03-18T10:50:23.919Z,98752.55
2019-03-18T10:52:59.119Z,98753.80
2019-03-18T10:55:32.061Z,98749.08
2019-03-18T10:58:03.617Z,98767.50
2019-03-18T11:00:36.427Z,98767.59
2019-03-18T11:03:11.082Z,98767.59
2019-03-18T11:05:44.184Z,98770.72
2019-03-18T11:08:16.416Z,98769.34
2019-03-18T11:10:48.305Z,98772.05
2019-03-18T11:13:22.250Z,98764.45
2019-03-18T11:15:54.475Z,98755.52
2019-03-18T11:18:27.252Z,98758.48
2019-03-18T11:21:00.587Z,98759.03
2019-03-18T11:23:36.302Z,98753.03
2019-03-18T11:26:10.267Z,98755.42
2019-03-18T11:28:44.099Z,98752.47
2019-03-18T11:31:16.637Z,98753.37
2019-03-18T11:33:48.366Z,98762.35
2019-03-18T11:36:21.587Z,98758.31
2019-03-18T11:38:55.279Z,98757.50
2019-03-18T11:41:27.508Z,98750.23
2019-03-18T11:44:05.979Z,98748.08
2019-03-18T11:46:40.712Z,98750.48
2019-03-18T11:49:15.243Z,98754.95
2019-03-18T11:51:50.791Z,98750.80
2019-03-18T11:54:22.544Z,98740.95
2019-03-18T11:56:55.525Z,98743.70
2019-03-18T11:59:30.349Z,98750.28
2019-03-18T12:02:04.384Z,98744.94
2019-03-18T12:04:37.495Z,98741.80
2019-03-18T12:07:09.484Z,98754.70
2019-03-18T12:09:42.507Z,98759.22
2019-03-18T12:12:15.533Z,98750.48
2019-03-18T12:15:08.823Z,98746.79
2019-03-18T12:17:42.429Z,98758.73
2019-03-18T12:20:24.922Z,98756.50
2019-03-18T12:22:57.422Z,98754.31
2019-03-18T12:25:33.486Z,98765.70
2019-03-18T12:28:06.692Z,98764.92
2019-03-18T12:30:40.155Z,98768.16
2019-03-18T12:33:11.604Z,98773.44
2019-03-18T12:35:47.248Z,98764.30
2019-03-18T12:38:20.347Z,98760.63
2019-03-18T12:40:52.649Z,98763.83
2019-03-18T12:43:24.766Z,98766.36
2019-03-18T12:45:56.927Z,98770.16
2019-03-18T12:48:32.389Z,98760.89
2019-03-18T12:51:10.067Z,98765.77
2019-03-18T12:53:42.824Z,98775.58
2019-03-18T12:56:17.490Z,98770.60
2019-03-18T12:58:53.542Z,98778.97
2019-03-18T13:01:30.108Z,98785.46
2019-03-18T13:04:04.508Z,98786.61
2019-03-18T13:06:38.718Z,98779.48
2019-03-18T13:09:12.760Z,98776.83
2019-03-18T13:11:50.323Z,98769.97
2019-03-18T13:14:22.706Z,98769.34
2019-03-18T13:16:54.683Z,98768.86
2019-03-18T13:19:28.133Z,98770.25
2019-03-18T13:22:03.385Z,98769.58
2019-03-18T13:24:39.566Z,98768.58
2019-03-18T13:27:13.283Z,98771.86
2019-03-18T13:29:45.978Z,98765.82
2019-03-18T13:32:18.813Z,98766.51
2019-03-18T13:34:52.352Z,98769.16
2019-03-18T13:37:26.333Z,98768.23
2019-03-18T13:39:57.940Z,98768.08
2019-03-18T13:42:32.018Z,98769.75
2019-03-18T13:45:05.141Z,98773.50
2019-03-18T13:47:39.275Z,98774.06
2019-03-18T13:50:13.595Z,98768.06
2019-03-18T13:52:47.925Z,98763.16
2019-03-18T13:55:22.041Z,98767.42
2019-03-18T13:57:55.390Z,98769.92
2019-03-18T14:00:30.872Z,98769.69
2019-03-18T14:03:05.966Z,98780.84
2019-03-18T14:05:41.377Z,98790.20
2019-03-18T14:08:13.407Z,98784.48
2019-03-18T14:10:44.874Z,98782.13
2019-03-18T14:13:18.807Z,98792.11
2019-03-18T14:15:51.225Z,98791.19
2019-03-18T14:18:23.976Z,98785.88
2019-03-18T14:20:55.355Z,98797.33
2019-03-18T14:23:27.126Z,98796.06
2019-03-18T14:25:59.983Z,98797.17
2019-03-18T14:28:33.007Z,98799.02
2019-03-18T14:31:07.067Z,98811.23
2019-03-18T14:33:39.084Z,98806.37
2019-03-18T14:36:12.142Z,98795.38
2019-03-18T14:38:44.232Z,98791.91
2019-03-18T14:41:18.180Z,98798.25
2019-03-18T14:43:50.437Z,98797.17
2019-03-18T14:46:22.387Z,98795.06
2019-03-18T14:48:56.141Z,98789.00
2019-03-18T14:51:30.075Z,98785.77
2019-03-18T14:54:03.333Z,98794.19
2019-03-18T14:56:36.145Z,98789.95
2019-03-18T14:59:09.790Z,98789.05
2019-03-18T15:01:43.124Z,98789.76
2019-03-18T15:04:16.193Z,98801.61
2019-03-18T15:06:50.628Z,98791.42
2019-03-18T15:09:23.449Z,98794.50
2019-03-18T15:11:56.675Z,98792.00
2019-03-18T15:14:30.185Z,98783.34
2019-03-18T15:17:01.494Z,98786.82
2019-03-18T15:19:34.635Z,98770.78
2019-03-18T15:22:06.090Z,98768.47
2019-03-18T15:24:40.202Z,98771.84
2019-03-18T15:27:12.472Z,98781.67
2019-03-18T15:29:46.377Z,98776.41
2019-03-18T15:32:19.218Z,98794.52
2019-03-18T15:34:52.337Z,98808.52
2019-03-18T15:37:25.467Z,98808.79
2019-03-18T15:39:58.259Z,98808.78
2019-03-18T15:42:32.894Z,98800.45
2019-03-18T15:45:04.718Z,98811.90
2019-03-18T15:47:36.535Z,98825.38
2019-03-18T15:50:12.974Z,98824.39
2019-03-18T15:52:45.458Z,98826.56
2019-03-18T15:55:18.651Z,98832.47
2019-03-18T15:57:50.686Z,98841.05
2019-03-18T16:00:22.856Z,98853.01
2019-03-18T16:02:54.437Z,98851.41
2019-03-18T16:05:28.252Z,98843.83
2019-03-18T16:08:00.720Z,98842.28
2019-03-18T16:10:32.893Z,98847.09
2019-03-18T16:13:08.952Z,98845.48
2019-03-18T16:15:40.784Z,98843.97
2019-03-18T16:18:12.751Z,98845.75
2019-03-18T16:20:45.526Z,98839.08
2019-03-18T16:23:18.596Z,98851.67
2019-03-18T16:25:51.635Z,98854.18
2019-03-18T16:28:28.408Z,98858.32
2019-03-18T16:31:00.614Z,98857.72
2019-03-18T16:33:35.379Z,98858.92
2019-03-18T16:36:11.376Z,98860.57
2019-03-18T16:38:45.898Z,98870.94
2019-03-18T16:41:18.992Z,98873.54
2019-03-18T16:43:50.561Z,98871.41
2019-03-18T16:46:26.414Z,98871.27
2019-03-18T16:48:57.817Z,98869.73
2019-03-18T16:51:30.902Z,98865.20
2019-03-18T16:54:02.683Z,98881.75
2019-03-18T16:56:38.657Z,98882.70
2019-03-18T16:59:17.438Z,98888.62
2019-03-18T17:01:50.739Z,98894.44
2019-03-18T17:04:24.819Z,98892.89
2019-03-18T17:06:57.507Z,98896.95
2019-03-18T17:09:30.776Z,98903.30
2019-03-18T17:12:06.939Z,98915.38
2019-03-18T17:14:41.875Z,98923.94
2019-03-18T17:17:14.990Z,98919.06
2019-03-18T17:19:49.947Z,98925.91
2019-03-18T17:22:22.138Z,98936.27
2019-03-18T17:24:54.951Z,98933.62
2019-03-18T17:27:28.410Z,98945.53
2019-03-18T17:30:02.916Z,98952.51
2019-03-18T17:32:38.485Z,98957.58
2019-03-18T17:35:13.326Z,98955.94
2019-03-18T17:37:46.944Z,98965.29
2019-03-18T17:40:24.882Z,98977.83
2019-03-18T17:42:57.538Z,98988.94
2019-03-18T17:45:30.778Z,98986.72
2019-03-18T17:48:05.925Z,98989.36
2019-03-18T17:50:39.979Z,98996.17
2019-03-18T17:53:17.782Z,99001.44
2019-03-18T17:55:50.002Z,98997.89
2019-03-18T17:58:22.076Z,99007.82
2019-03-18T18:00:55.131Z,99018.28
2019-03-18T18:03:31.012Z,99015.69
2019-03-18T18:06:04.266Z,99020.63
2019-03-18T18:08:39.713Z,99017.98
2019-03-18T18:11:11.124Z,99016.98
2019-03-18T18:13:44.377Z,99035.64
2019-03-18T18:16:16.163Z,99022.50
2019-03-18T18:18:50.238Z,99033.82
2019-03-18T18:21:22.913Z,99052.45
2019-03-18T18:23:55.156Z,99045.64
2019-03-18T18:26:28.103Z,99046.14
2019-03-18T18:29:02.812Z,99046.67
2019-03-18T18:31:37.237Z,99062.13
2019-03-18T18:34:12.015Z,99054.70
2019-03-18T18:36:45.368Z,99054.09
2019-03-18T18:39:19.298Z,99056.45
2019-03-18T18:41:53.106Z,99052.89
2019-03-18T18:44:25.345Z,99054.30
2019-03-18T18:46:59.185Z,99065.81
2019-03-18T18:49:30.666Z,99053.39
2019-03-18T18:52:04.269Z,99066.09
2019-03-18T18:54:37.780Z,99071.19
2019-03-18T18:57:10.365Z,99064.97
2019-03-18T18:59:42.292Z,99061.09
2019-03-18T19:02:16.307Z,99060.49
2019-03-18T19:04:49.374Z,99057.83
2019-03-18T19:07:22.271Z,99063.91
2019-03-18T19:09:55.416Z,99068.38
2019-03-18T19:12:27.401Z,99071.81
2019-03-18T19:15:00.342Z,99073.21
2019-03-18T19:17:31.746Z,99071.92
2019-03-18T19:20:05.550Z,99085.84
2019-03-18T19:22:38.452Z,99081.52
2019-03-18T19:25:11.683Z,99075.52
2019-03-18T19:27:43.325Z,99078.33
2019-03-18T19:30:17.835Z,99082.02
2019-03-18T19:32:51.652Z,99091.42
2019-03-18T19:35:24.462Z,99099.55
2019-03-18T19:37:57.551Z,99099.09
2019-03-18T19:40:31.405Z,99105.84
2019-03-18T19:43:03.548Z,99116.83
2019-03-18T19:45:36.621Z,99124.22
2019-03-18T19:48:08.489Z,99122.89
2019-03-18T19:50:40.646Z,99128.58
2019-03-18T19:53:12.612Z,99125.06
2019-03-18T19:55:45.645Z,99129.34
2019-03-18T19:58:18.776Z,99130.67
2019-03-18T20:00:51.563Z,99132.92
2019-03-18T20:03:24.496Z,99144.05
2019-03-18T20:05:57.730Z,99147.15
2019-03-18T20:08:30.874Z,99150.04
2019-03-18T20:11:03.501Z,99151.03
2019-03-18T20:13:35.811Z,99148.07
2019-03-18T20:16:09.599Z,99152.23
2019-03-18T20:18:41.753Z,99150.83
2019-03-18T20:21:15.620Z,99151.03
2019-03-18T20:24:00.076Z,99149.89
2019-03-18T20:26:22.857Z,99163.40
2019-03-18T20:28:56.904Z,99158.50
2019-03-18T20:31:30.676Z,99162.83
2019-03-18T20:34:03.605Z,99163.41
2019-03-18T20:36:36.637Z,99169.55
2019-03-18T20:39:09.072Z,99172.27
2019-03-18T20:41:42.820Z,99171.94
2019-03-18T20:44:15.751Z,99172.27
2019-03-18T20:46:48.780Z,99171.31
2019-03-18T20:49:21.781Z,99175.31
2019-03-18T20:51:54.726Z,99169.29
2019-03-18T20:54:27.683Z,99168.47
2019-03-18T20:57:00.801Z,99167.77
2019-03-18T20:59:33.869Z,99177.70
2019-03-18T21:02:08.156Z,99172.09
2019-03-18T21:04:39.881Z,99180.33
2019-03-18T21:07:16.932Z,99183.30
2019-03-18T21:09:51.738Z,99186.59
2019-03-18T21:12:24.840Z,99196.84
2019-03-18T21:14:57.763Z,99199.52
2019-03-18T21:17:30.723Z,99200.09
2019-03-18T21:20:04.232Z,99195.68
2019-03-18T21:22:36.022Z,99199.01
2019-03-18T21:25:10.785Z,99204.64
2019-03-18T21:27:42.918Z,99210.28
2019-03-18T21:30:16.149Z,99215.30
2019-03-18T21:32:48.066Z,99219.28
2019-03-18T21:35:22.194Z,99218.53
2019-03-18T21:37:53.971Z,99228.27
2019-03-18T21:40:29.723Z,99225.38
2019-03-18T21:43:04.149Z,99227.38
2019-03-18T21:45:35.957Z,99224.13
2019-03-18T21:48:11.595Z,99231.37
2019-03-18T21:50:43.061Z,99231.42
2019-03-18T21:53:14.537Z,99237.39
2019-03-18T21:55:47.039Z,99243.31
2019-03-18T21:58:19.306Z,99241.36
2019-03-18T22:00:51.969Z,99243.17
2019-03-18T22:03:25.080Z,99242.35
2019-03-18T22:05:57.757Z,99242.55
2019-03-18T22:08:31.038Z,99240.11
2019-03-18T22:11:04.549Z,99240.95
2019-03-18T22:13:38.804Z,99243.45
2019-03-18T22:16:13.125Z,99248.06
2019-03-18T22:18:46.310Z,99248.06
2019-03-18T22:21:19.233Z,99247.43
2019-03-18T22:23:52.338Z,99253.72
2019-03-18T22:26:26.344Z,99255.03
2019-03-18T22:28:59.733Z,99258.98
2019-03-18T22:31:31.174Z,99261.61
2019-03-18T22:34:02.794Z,99259.34
2019-03-18T22:36:36.870Z,99265.59
2019-03-18T22:39:10.726Z,99268.22
2019-03-18T22:41:44.699Z,99270.86
2019-03-18T22:44:16.334Z,99270.22
2019-03-18T22:46:50.231Z,99273.84
2019-03-18T22:49:22.413Z,99266.14
2019-03-18T22:51:53.944Z,99268.44
2019-03-18T22:54:26.347Z,99267.13
2019-03-18T22:56:57.750Z,99266.30
2019-03-18T22:59:31.413Z,99272.05
2019-03-18T23:02:04.688Z,99268.11
2019-03-18T23:04:38.951Z,99262.70
2019-03-18T23:07:10.729Z,99261.39
2019-03-18T23:09:45.203Z,99262.05
2019-03-18T23:12:17.478Z,99267.31
2019-03-18T23:14:50.547Z,99271.91
2019-03-18T23:17:23.350Z,99264.02
2019-03-18T23:19:55.463Z,99262.89
2019-03-18T23:22:29.441Z,99267.48
2019-03-18T23:25:06.934Z,99265.34
2019-03-18T23:27:34.725Z,99257.93
2019-03-18T23:30:08.205Z,99265.03
2019-03-18T23:32:40.526Z,99273.09
2019-03-18T23:35:14.130Z,99274.27
2019-03-18T23:37:46.389Z,99235.70
2019-03-18T23:40:19.382Z,99283.81
2019-03-18T23:42:51.323Z,99273.92
2019-03-18T23:45:24.427Z,99277.23
2019-03-18T23:47:56.704Z,99281.53
2019-03-18T23:50:28.546Z,99284.66
2019-03-18T23:53:01.652Z,99283.15
2019-03-18T23:55:34.657Z,99275.09
2019-03-18T23:58:07.504Z,99285.95
